sensor_id;sensor_type;location;lat;lon;timestamp;pressure;altitude;pressure_sealevel;temperature;humidity
4598;BME280;62772;48.646;8.906;2023-04-03T00:03:45;96927.66;;;1.55;100.00
4598;BME280;62772;48.646;8.906;2023-04-03T00:08:45;96920.31;;;1.57;100.00
4598;BME280;62772;48.646;8.906;2023-04-03T00:13:46;96922.00;;;1.63;100.00
4598;BME280;62772;48.646;8.906;2023-04-03T00:18:46;96911.84;;;1.55;100.00
4598;BME280;62772;48.646;8.906;2023-04-03T00:23:47;96927.66;;;1.55;100.00
4598;BME280;62772;48.646;8.906;2023-04-03T00:28:47;96917.91;;;1.55;100.00
4598;BME280;62772;48.646;8.906;2023-04-03T00:33:48;96913.53;;;1.61;100.00
4598;BME280;62772;48.646;8.906;2023-04-03T00:38:48;96909.22;;;1.55;100.00
4598;BME280;62772;48.646;8.906;2023-04-03T00:43:48;96920.69;;;1.49;100.00
4598;BME280;62772;48.646;8.906;2023-04-03T00:48:49;96919.44;;;1.51;100.00
4598;BME280;62772;48.646;8.906;2023-04-03T00:53:53;96913.97;;;1.41;100.00
4598;BME280;62772;48.646;8.906;2023-04-03T00:59:08;96913.94;;;1.53;100.00
4598;BME280;62772;48.646;8.906;2023-04-03T01:04:37;96906.75;;;1.48;100.00
4598;BME280;62772;48.646;8.906;2023-04-03T01:09:38;96909.94;;;1.50;100.00
4598;BME280;62772;48.646;8.906;2023-04-03T01:14:39;96915.09;;;1.45;100.00
4598;BME280;62772;48.646;8.906;2023-04-03T01:19:43;96919.66;;;1.50;100.00
4598;BME280;62772;48.646;8.906;2023-04-03T01:24:51;96925.88;;;1.43;100.00
4598;BME280;62772;48.646;8.906;2023-04-03T01:29:54;96923.94;;;1.39;100.00
4598;BME280;62772;48.646;8.906;2023-04-03T01:34:54;96923.25;;;1.43;100.00
4598;BME280;62772;48.646;8.906;2023-04-03T01:39:55;96924.19;;;1.37;100.00
4598;BME280;62772;48.646;8.906;2023-04-03T01:44:56;96922.00;;;1.34;100.00
4598;BME280;62772;48.646;8.906;2023-04-03T01:49:57;96923.19;;;1.26;100.00
4598;BME280;62772;48.646;8.906;2023-04-03T01:54:57;96920.47;;;1.21;100.00
4598;BME280;62772;48.646;8.906;2023-04-03T01:59:58;96925.72;;;1.21;100.00
4598;BME280;62772;48.646;8.906;2023-04-03T02:04:58;96911.63;;;1.27;100.00
4598;BME280;62772;48.646;8.906;2023-04-03T02:09:59;96916.44;;;1.31;100.00
4598;BME280;62772;48.646;8.906;2023-04-03T02:14:59;96927.53;;;1.21;100.00
4598;BME280;62772;48.646;8.906;2023-04-03T02:20:01;96928.03;;;1.18;100.00
4598;BME280;62772;48.646;8.906;2023-04-03T02:25:02;96928.59;;;1.20;100.00
4598;BME280;62772;48.646;8.906;2023-04-03T02:30:04;96925.88;;;1.15;100.00
4598;BME280;62772;48.646;8.906;2023-04-03T02:35:05;96928.91;;;1.23;100.00
4598;BME280;62772;48.646;8.906;2023-04-03T02:40:07;96928.78;;;1.30;100.00
4598;BME280;62772;48.646;8.906;2023-04-03T02:45:09;96926.50;;;1.34;100.00
4598;BME280;62772;48.646;8.906;2023-04-03T02:50:10;96925.28;;;1.13;100.00
4598;BME280;62772;48.646;8.906;2023-04-03T02:55:14;96931.31;;;0.84;100.00
4598;BME280;62772;48.646;8.906;2023-04-03T03:00:16;96926.59;;;0.98;100.00
4598;BME280;62772;48.646;8.906;2023-04-03T03:05:17;96930.50;;;0.96;100.00
4598;BME280;62772;48.646;8.906;2023-04-03T03:10:18;96933.81;;;0.91;100.00
4598;BME280;62772;48.646;8.906;2023-04-03T03:15:19;96929.34;;;0.92;100.00
4598;BME280;62772;48.646;8.906;2023-04-03T03:20:20;96928.19;;;0.99;100.00
4598;BME280;62772;48.646;8.906;2023-04-03T03:25:21;96912.28;;;1.06;100.00
4598;BME280;62772;48.646;8.906;2023-04-03T03:30:22;96915.59;;;1.01;100.00
4598;BME280;62772;48.646;8.906;2023-04-03T03:35:23;96914.44;;;1.09;100.00
4598;BME280;62772;48.646;8.906;2023-04-03T03:40:23;96918.56;;;1.05;100.00
4598;BME280;62772;48.646;8.906;2023-04-03T03:45:24;96916.53;;;0.95;100.00
4598;BME280;62772;48.646;8.906;2023-04-03T03:50:25;96919.06;;;0.90;100.00
4598;BME280;62772;48.646;8.906;2023-04-03T03:55:26;96913.91;;;0.95;100.00
4598;BME280;62772;48.646;8.906;2023-04-03T04:00:29;96915.41;;;0.91;100.00
4598;BME280;62772;48.646;8.906;2023-04-03T04:05:31;96914.59;;;0.90;100.00
4598;BME280;62772;48.646;8.906;2023-04-03T04:10:34;96924.56;;;0.88;100.00
4598;BME280;62772;48.646;8.906;2023-04-03T04:15:35;96924.41;;;0.95;100.00
4598;BME280;62772;48.646;8.906;2023-04-03T04:20:36;96926.25;;;0.95;100.00
4598;BME280;62772;48.646;8.906;2023-04-03T04:25:37;96920.69;;;0.91;100.00
4598;BME280;62772;48.646;8.906;2023-04-03T04:30:39;96928.88;;;0.95;100.00
4598;BME280;62772;48.646;8.906;2023-04-03T04:35:42;96931.53;;;0.95;100.00
4598;BME280;62772;48.646;8.906;2023-04-03T04:40:43;96930.16;;;0.92;100.00
4598;BME280;62772;48.646;8.906;2023-04-03T04:45:43;96923.31;;;0.91;100.00
4598;BME280;62772;48.646;8.906;2023-04-03T04:50:44;96922.72;;;0.89;100.00
4598;BME280;62772;48.646;8.906;2023-04-03T04:55:45;96934.94;;;0.95;100.00
4598;BME280;62772;48.646;8.906;2023-04-03T05:00:46;96937.56;;;0.95;100.00
4598;BME280;62772;48.646;8.906;2023-04-03T05:05:46;96941.47;;;0.93;100.00
4598;BME280;62772;48.646;8.906;2023-04-03T05:10:47;96952.00;;;0.93;100.00
4598;BME280;62772;48.646;8.906;2023-04-03T05:15:50;96943.19;;;0.99;100.00
4598;BME280;62772;48.646;8.906;2023-04-03T05:20:51;96947.63;;;0.98;100.00
4598;BME280;62772;48.646;8.906;2023-04-03T05:25:53;96957.91;;;1.00;100.00
4598;BME280;62772;48.646;8.906;2023-04-03T05:30:56;96962.38;;;0.99;100.00
4598;BME280;62772;48.646;8.906;2023-04-03T05:36:04;96950.84;;;1.00;100.00
4598;BME280;62772;48.646;8.906;2023-04-03T05:41:06;96950.94;;;1.05;100.00
4598;BME280;62772;48.646;8.906;2023-04-03T05:46:15;96963.97;;;1.12;100.00
4598;BME280;62772;48.646;8.906;2023-04-03T05:51:22;96956.25;;;1.22;100.00
4598;BME280;62772;48.646;8.906;2023-04-03T05:56:26;96960.06;;;1.15;100.00
4598;BME280;62772;48.646;8.906;2023-04-03T06:01:26;96967.25;;;1.19;100.00
4598;BME280;62772;48.646;8.906;2023-04-03T06:06:49;96961.97;;;1.31;100.00
4598;BME280;62772;48.646;8.906;2023-04-03T06:11:52;96960.56;;;1.40;100.00
4598;BME280;62772;48.646;8.906;2023-04-03T06:16:55;96969.47;;;1.39;100.00
4598;BME280;62772;48.646;8.906;2023-04-03T06:21:55;96967.63;;;1.40;100.00
4598;BME280;62772;48.646;8.906;2023-04-03T06:26:58;96974.41;;;1.36;100.00
4598;BME280;62772;48.646;8.906;2023-04-03T06:31:58;96976.50;;;1.34;100.00
4598;BME280;62772;48.646;8.906;2023-04-03T06:36:59;96976.50;;;1.22;100.00
4598;BME280;62772;48.646;8.906;2023-04-03T06:41:59;96982.22;;;1.31;100.00
4598;BME280;62772;48.646;8.906;2023-04-03T06:47:11;96988.38;;;1.36;100.00
4598;BME280;62772;48.646;8.906;2023-04-03T06:52:12;96995.84;;;1.27;100.00
4598;BME280;62772;48.646;8.906;2023-04-03T06:57:13;96996.97;;;1.32;100.00
4598;BME280;62772;48.646;8.906;2023-04-03T07:02:13;96994.63;;;1.47;100.00
4598;BME280;62772;48.646;8.906;2023-04-03T07:07:14;96997.88;;;1.37;100.00
4598;BME280;62772;48.646;8.906;2023-04-03T07:12:15;96996.41;;;1.58;100.00
4598;BME280;62772;48.646;8.906;2023-04-03T07:17:16;96999.44;;;1.79;100.00
4598;BME280;62772;48.646;8.906;2023-04-03T07:22:17;97011.91;;;1.72;100.00
4598;BME280;62772;48.646;8.906;2023-04-03T07:27:17;97004.69;;;1.79;100.00
4598;BME280;62772;48.646;8.906;2023-04-03T07:32:18;97007.09;;;1.80;100.00
4598;BME280;62772;48.646;8.906;2023-04-03T07:37:18;97007.50;;;1.89;100.00
4598;BME280;62772;48.646;8.906;2023-04-03T07:42:18;97022.81;;;1.92;100.00
4598;BME280;62772;48.646;8.906;2023-04-03T07:47:19;97009.63;;;2.04;100.00
4598;BME280;62772;48.646;8.906;2023-04-03T07:52:21;97017.38;;;2.28;100.00
4598;BME280;62772;48.646;8.906;2023-04-03T07:57:21;97020.41;;;2.36;100.00
4598;BME280;62772;48.646;8.906;2023-04-03T08:02:22;97025.38;;;2.33;100.00
4598;BME280;62772;48.646;8.906;2023-04-03T08:07:22;97023.38;;;2.23;100.00
4598;BME280;62772;48.646;8.906;2023-04-03T08:12:22;97021.31;;;2.42;100.00
4598;BME280;62772;48.646;8.906;2023-04-03T08:17:23;97025.28;;;2.45;100.00
4598;BME280;62772;48.646;8.906;2023-04-03T08:22:23;97022.97;;;2.65;100.00
4598;BME280;62772;48.646;8.906;2023-04-03T08:27:24;97023.28;;;2.35;100.00
4598;BME280;62772;48.646;8.906;2023-04-03T08:32:25;97032.56;;;2.38;100.00
4598;BME280;62772;48.646;8.906;2023-04-03T08:37:25;97032.47;;;2.49;100.00
4598;BME280;62772;48.646;8.906;2023-04-03T08:42:48;97032.47;;;2.49;100.00
4598;BME280;62772;48.646;8.906;2023-04-03T08:48:04;97035.59;;;2.63;100.00
4598;BME280;62772;48.646;8.906;2023-04-03T08:53:28;97042.94;;;2.61;100.00
4598;BME280;62772;48.646;8.906;2023-04-03T08:58:41;97042.72;;;2.63;100.00
4598;BME280;62772;48.646;8.906;2023-04-03T09:03:43;97045.66;;;2.66;100.00
4598;BME280;62772;48.646;8.906;2023-04-03T09:14:49;97045.66;;;2.66;100.00
4598;BME280;62772;48.646;8.906;2023-04-03T09:25:23;97047.09;;;2.74;100.00
4598;BME280;62772;48.646;8.906;2023-04-03T09:30:26;97047.72;;;2.81;100.00
4598;BME280;62772;48.646;8.906;2023-04-03T09:35:30;97044.22;;;2.76;100.00
4598;BME280;62772;48.646;8.906;2023-04-03T09:40:34;97048.13;;;2.90;100.00
4598;BME280;62772;48.646;8.906;2023-04-03T09:45:35;97056.53;;;2.87;100.00
4598;BME280;62772;48.646;8.906;2023-04-03T09:50:36;97045.72;;;2.88;100.00
4598;BME280;62772;48.646;8.906;2023-04-03T09:55:43;97046.44;;;3.01;100.00
4598;BME280;62772;48.646;8.906;2023-04-03T10:00:54;97050.34;;;2.98;100.00
4598;BME280;62772;48.646;8.906;2023-04-03T10:05:54;97035.88;;;3.01;100.00
4598;BME280;62772;48.646;8.906;2023-04-03T10:11:12;97037.22;;;3.03;100.00
4598;BME280;62772;48.646;8.906;2023-04-03T10:16:18;97038.09;;;3.09;100.00
4598;BME280;62772;48.646;8.906;2023-04-03T10:21:39;97036.19;;;3.04;97.56
4598;BME280;62772;48.646;8.906;2023-04-03T10:27:08;97031.56;;;2.95;86.52
4598;BME280;62772;48.646;8.906;2023-04-03T10:32:17;97032.56;;;3.11;92.54
4598;BME280;62772;48.646;8.906;2023-04-03T10:37:33;97023.81;;;3.49;90.58
4598;BME280;62772;48.646;8.906;2023-04-03T10:42:50;97028.41;;;3.59;89.83
4598;BME280;62772;48.646;8.906;2023-04-03T10:58:54;97033.25;;;3.45;93.04
4598;BME280;62772;48.646;8.906;2023-04-03T11:03:59;97034.38;;;3.49;91.52
4598;BME280;62772;48.646;8.906;2023-04-03T11:09:05;97033.81;;;3.47;86.28
4598;BME280;62772;48.646;8.906;2023-04-03T11:19:34;97028.41;;;3.59;88.40
4598;BME280;62772;48.646;8.906;2023-04-03T11:24:37;97026.78;;;3.58;90.45
4598;BME280;62772;48.646;8.906;2023-04-03T11:29:40;97015.31;;;3.69;88.55
4598;BME280;62772;48.646;8.906;2023-04-03T11:34:44;97022.31;;;3.80;88.29
4598;BME280;62772;48.646;8.906;2023-04-03T11:39:54;97016.09;;;3.70;84.31
4598;BME280;62772;48.646;8.906;2023-04-03T11:45:16;97017.75;;;3.76;86.54
4598;BME280;62772;48.646;8.906;2023-04-03T11:50:42;97014.72;;;3.89;88.38
4598;BME280;62772;48.646;8.906;2023-04-03T11:55:44;97017.97;;;3.69;86.49
4598;BME280;62772;48.646;8.906;2023-04-03T12:00:57;97006.09;;;3.72;87.32
4598;BME280;62772;48.646;8.906;2023-04-03T12:16:33;96998.34;;;3.65;86.02
4598;BME280;62772;48.646;8.906;2023-04-03T12:26:47;96995.72;;;3.65;80.71
4598;BME280;62772;48.646;8.906;2023-04-03T12:42:59;96994.97;;;3.70;80.84
4598;BME280;62772;48.646;8.906;2023-04-03T12:48:13;96988.25;;;3.84;79.00
4598;BME280;62772;48.646;8.906;2023-04-03T12:53:27;96987.00;;;3.65;79.26
4598;BME280;62772;48.646;8.906;2023-04-03T12:58:30;96979.97;;;3.75;79.75
4598;BME280;62772;48.646;8.906;2023-04-03T13:03:31;96977.94;;;3.83;79.76
4598;BME280;62772;48.646;8.906;2023-04-03T13:08:32;96974.66;;;3.75;72.68
4598;BME280;62772;48.646;8.906;2023-04-03T13:13:32;96981.69;;;3.87;73.89
4598;BME280;62772;48.646;8.906;2023-04-03T13:18:34;96982.25;;;3.94;75.43
4598;BME280;62772;48.646;8.906;2023-04-03T13:23:38;96978.91;;;4.04;75.51
4598;BME280;62772;48.646;8.906;2023-04-03T13:28:40;96974.22;;;4.11;72.50
4598;BME280;62772;48.646;8.906;2023-04-03T13:33:53;96967.84;;;4.07;71.76
4598;BME280;62772;48.646;8.906;2023-04-03T13:39:20;96969.72;;;4.11;76.37
4598;BME280;62772;48.646;8.906;2023-04-03T13:49:29;96968.25;;;3.93;74.16
4598;BME280;62772;48.646;8.906;2023-04-03T13:54:33;96973.75;;;4.19;79.09
4598;BME280;62772;48.646;8.906;2023-04-03T13:59:35;96969.00;;;4.21;68.19
4598;BME280;62772;48.646;8.906;2023-04-03T14:09:42;96959.38;;;4.05;65.89
4598;BME280;62772;48.646;8.906;2023-04-03T14:14:44;96961.97;;;4.37;62.64
4598;BME280;62772;48.646;8.906;2023-04-03T14:19:46;96956.53;;;4.16;63.80
4598;BME280;62772;48.646;8.906;2023-04-03T14:24:47;96956.66;;;4.32;66.38
4598;BME280;62772;48.646;8.906;2023-04-03T14:29:51;96958.31;;;4.06;68.04
4598;BME280;62772;48.646;8.906;2023-04-03T14:34:53;96954.13;;;4.10;67.71
4598;BME280;62772;48.646;8.906;2023-04-03T14:39:54;96943.53;;;4.10;63.40
4598;BME280;62772;48.646;8.906;2023-04-03T14:44:57;96954.16;;;4.15;63.16
4598;BME280;62772;48.646;8.906;2023-04-03T14:50:01;96940.56;;;4.33;62.14
4598;BME280;62772;48.646;8.906;2023-04-03T14:55:04;96933.91;;;4.31;60.99
4598;BME280;62772;48.646;8.906;2023-04-03T15:00:07;96938.63;;;4.24;60.77
4598;BME280;62772;48.646;8.906;2023-04-03T15:05:12;96938.00;;;4.11;63.10
4598;BME280;62772;48.646;8.906;2023-04-03T15:10:27;96943.75;;;4.03;64.82
4598;BME280;62772;48.646;8.906;2023-04-03T15:15:29;96945.47;;;3.87;67.58
4598;BME280;62772;48.646;8.906;2023-04-03T15:20:30;96933.97;;;4.04;67.91
4598;BME280;62772;48.646;8.906;2023-04-03T15:25:33;96933.97;;;4.04;68.98
4598;BME280;62772;48.646;8.906;2023-04-03T15:30:36;96929.19;;;4.00;68.91
4598;BME280;62772;48.646;8.906;2023-04-03T15:35:37;96928.03;;;4.18;68.64
4598;BME280;62772;48.646;8.906;2023-04-03T15:40:37;96931.22;;;4.26;61.72
4598;BME280;62772;48.646;8.906;2023-04-03T15:45:38;96934.03;;;4.46;62.68
4598;BME280;62772;48.646;8.906;2023-04-03T15:50:39;96924.00;;;4.11;60.86
4598;BME280;62772;48.646;8.906;2023-04-03T15:55:42;96926.00;;;3.98;61.16
4598;BME280;62772;48.646;8.906;2023-04-03T16:00:43;96926.50;;;3.95;63.01
4598;BME280;62772;48.646;8.906;2023-04-03T16:05:43;96934.78;;;4.04;64.42
4598;BME280;62772;48.646;8.906;2023-04-03T16:10:44;96924.03;;;4.16;65.04
4598;BME280;62772;48.646;8.906;2023-04-03T16:15:47;96930.09;;;4.16;62.99
4598;BME280;62772;48.646;8.906;2023-04-03T16:20:49;96931.97;;;4.16;62.61
4598;BME280;62772;48.646;8.906;2023-04-03T16:25:50;96930.00;;;4.01;59.69
4598;BME280;62772;48.646;8.906;2023-04-03T16:30:51;96941.66;;;4.05;59.68
4598;BME280;62772;48.646;8.906;2023-04-03T16:35:51;96943.16;;;3.96;59.81
4598;BME280;62772;48.646;8.906;2023-04-03T16:40:52;96939.22;;;3.98;58.26
4598;BME280;62772;48.646;8.906;2023-04-03T16:45:57;96954.41;;;3.81;58.62
4598;BME280;62772;48.646;8.906;2023-04-03T16:50:58;96948.91;;;3.88;59.78
4598;BME280;62772;48.646;8.906;2023-04-03T16:55:59;96943.88;;;3.86;58.08
4598;BME280;62772;48.646;8.906;2023-04-03T17:01:11;96941.84;;;3.93;61.41
4598;BME280;62772;48.646;8.906;2023-04-03T17:06:16;96945.53;;;3.97;59.32
4598;BME280;62772;48.646;8.906;2023-04-03T17:11:18;96932.78;;;3.89;60.60
4598;BME280;62772;48.646;8.906;2023-04-03T17:16:21;96939.03;;;3.78;59.32
4598;BME280;62772;48.646;8.906;2023-04-03T17:21:22;96946.56;;;3.64;57.22
4598;BME280;62772;48.646;8.906;2023-04-03T17:26:23;96945.94;;;3.52;57.55
4598;BME280;62772;48.646;8.906;2023-04-03T17:31:24;96944.28;;;3.45;56.86
4598;BME280;62772;48.646;8.906;2023-04-03T17:36:24;96945.22;;;3.34;60.43
4598;BME280;62772;48.646;8.906;2023-04-03T17:41:25;96950.31;;;3.41;58.70
4598;BME280;62772;48.646;8.906;2023-04-03T17:46:25;96949.63;;;3.51;59.45
4598;BME280;62772;48.646;8.906;2023-04-03T17:51:26;96945.03;;;3.41;63.03
4598;BME280;62772;48.646;8.906;2023-04-03T17:56:27;96948.59;;;3.30;65.14
4598;BME280;62772;48.646;8.906;2023-04-03T18:01:30;96948.94;;;3.38;63.54
4598;BME280;62772;48.646;8.906;2023-04-03T18:06:36;96953.56;;;3.26;65.79
4598;BME280;62772;48.646;8.906;2023-04-03T18:11:38;96954.03;;;3.23;62.59
4598;BME280;62772;48.646;8.906;2023-04-03T18:16:38;96958.34;;;3.29;63.05
4598;BME280;62772;48.646;8.906;2023-04-03T18:21:39;96953.06;;;3.29;66.79
4598;BME280;62772;48.646;8.906;2023-04-03T18:26:41;96955.13;;;3.22;65.62
4598;BME280;62772;48.646;8.906;2023-04-03T18:31:47;96951.84;;;3.15;67.93
4598;BME280;62772;48.646;8.906;2023-04-03T18:36:48;96962.72;;;3.18;69.28
4598;BME280;62772;48.646;8.906;2023-04-03T18:41:49;96961.56;;;3.09;65.41
4598;BME280;62772;48.646;8.906;2023-04-03T18:46:51;96964.69;;;3.06;66.67
4598;BME280;62772;48.646;8.906;2023-04-03T18:51:53;96971.00;;;3.05;66.02
4598;BME280;62772;48.646;8.906;2023-04-03T18:56:54;96973.53;;;2.95;67.71
4598;BME280;62772;48.646;8.906;2023-04-03T19:01:54;96974.97;;;2.85;66.50
4598;BME280;62772;48.646;8.906;2023-04-03T19:06:55;96978.34;;;2.81;66.06
4598;BME280;62772;48.646;8.906;2023-04-03T19:11:56;96969.56;;;2.75;69.77
4598;BME280;62772;48.646;8.906;2023-04-03T19:16:57;96977.69;;;2.51;69.95
4598;BME280;62772;48.646;8.906;2023-04-03T19:21:57;96964.09;;;2.60;66.90
4598;BME280;62772;48.646;8.906;2023-04-03T19:26:58;96969.00;;;2.56;66.14
4598;BME280;62772;48.646;8.906;2023-04-03T19:31:58;96976.31;;;2.49;67.41
4598;BME280;62772;48.646;8.906;2023-04-03T19:36:59;96973.03;;;2.42;66.11
4598;BME280;62772;48.646;8.906;2023-04-03T19:42:01;96978.41;;;2.47;68.85
4598;BME280;62772;48.646;8.906;2023-04-03T19:47:02;96975.59;;;2.36;68.02
4598;BME280;62772;48.646;8.906;2023-04-03T19:52:03;96963.78;;;2.22;67.30
4598;BME280;62772;48.646;8.906;2023-04-03T19:57:03;96965.63;;;2.22;67.95
4598;BME280;62772;48.646;8.906;2023-04-03T20:02:04;96976.88;;;2.17;68.27
4598;BME280;62772;48.646;8.906;2023-04-03T20:07:05;96982.22;;;2.05;68.47
4598;BME280;62772;48.646;8.906;2023-04-03T20:12:06;96981.16;;;1.89;67.80
4598;BME280;62772;48.646;8.906;2023-04-03T20:17:08;96976.22;;;1.93;67.93
4598;BME280;62772;48.646;8.906;2023-04-03T20:22:09;96972.53;;;1.94;69.03
4598;BME280;62772;48.646;8.906;2023-04-03T20:27:09;96972.53;;;1.94;67.02
4598;BME280;62772;48.646;8.906;2023-04-03T20:32:10;96968.81;;;1.90;69.71
4598;BME280;62772;48.646;8.906;2023-04-03T20:37:11;96970.53;;;1.84;68.80
4598;BME280;62772;48.646;8.906;2023-04-03T20:42:13;96966.78;;;1.80;69.43
4598;BME280;62772;48.646;8.906;2023-04-03T20:47:13;96966.38;;;1.71;70.56
4598;BME280;62772;48.646;8.906;2023-04-03T20:52:15;96978.31;;;1.62;70.87
4598;BME280;62772;48.646;8.906;2023-04-03T20:57:15;96966.66;;;1.58;70.46
4598;BME280;62772;48.646;8.906;2023-04-03T21:02:17;96969.09;;;1.48;71.19
4598;BME280;62772;48.646;8.906;2023-04-03T21:23:44;96966.69;;;1.17;75.71
4598;BME280;62772;48.646;8.906;2023-04-03T21:28:45;96966.50;;;1.07;73.73
4598;BME280;62772;48.646;8.906;2023-04-03T21:33:45;96977.16;;;0.88;76.32
4598;BME280;62772;48.646;8.906;2023-04-03T21:38:46;96969.97;;;0.72;78.68
4598;BME280;62772;48.646;8.906;2023-04-03T21:43:47;96969.97;;;0.72;81.26
4598;BME280;62772;48.646;8.906;2023-04-03T21:48:47;96968.84;;;0.56;79.74
4598;BME280;62772;48.646;8.906;2023-04-03T21:53:51;96964.47;;;0.62;81.96
4598;BME280;62772;48.646;8.906;2023-04-03T21:58:55;96964.84;;;0.53;87.19
4598;BME280;62772;48.646;8.906;2023-04-03T22:03:57;96968.16;;;0.49;83.74
4598;BME280;62772;48.646;8.906;2023-04-03T22:08:58;96968.84;;;0.44;85.42
4598;BME280;62772;48.646;8.906;2023-04-03T22:13:58;96969.19;;;0.36;84.66
4598;BME280;62772;48.646;8.906;2023-04-03T22:18:59;96963.56;;;0.21;85.52
4598;BME280;62772;48.646;8.906;2023-04-03T22:24:00;96964.81;;;0.06;86.00
4598;BME280;62772;48.646;8.906;2023-04-03T22:29:01;96964.81;;;0.06;85.97
4598;BME280;62772;48.646;8.906;2023-04-03T22:34:01;96958.75;;;0.06;88.05
4598;BME280;62772;48.646;8.906;2023-04-03T22:39:04;96967.75;;;-0.02;87.75
4598;BME280;62772;48.646;8.906;2023-04-03T22:44:05;96974.50;;;-0.06;88.76
4598;BME280;62772;48.646;8.906;2023-04-03T22:49:06;96964.78;;;-0.17;88.18
4598;BME280;62772;48.646;8.906;2023-04-03T22:54:06;96961.56;;;-0.20;90.38
4598;BME280;62772;48.646;8.906;2023-04-03T22:59:07;96964.63;;;-0.23;90.04
4598;BME280;62772;48.646;8.906;2023-04-03T23:04:07;96960.94;;;-0.33;90.17
4598;BME280;62772;48.646;8.906;2023-04-03T23:09:08;96971.09;;;-0.37;91.27
4598;BME280;62772;48.646;8.906;2023-04-03T23:14:08;96971.09;;;-0.37;91.57
4598;BME280;62772;48.646;8.906;2023-04-03T23:19:09;96964.84;;;-0.36;92.26
4598;BME280;62772;48.646;8.906;2023-04-03T23:24:10;96972.72;;;-0.36;91.66
4598;BME280;62772;48.646;8.906;2023-04-03T23:29:10;96963.66;;;-0.40;95.42
4598;BME280;62772;48.646;8.906;2023-04-03T23:34:11;96966.16;;;-0.45;94.01
4598;BME280;62772;48.646;8.906;2023-04-03T23:39:11;96975.72;;;-0.51;93.36
4598;BME280;62772;48.646;8.906;2023-04-03T23:44:12;96969.78;;;-0.58;99.26
4598;BME280;62772;48.646;8.906;2023-04-03T23:49:12;96974.34;;;-0.53;95.02
4598;BME280;62772;48.646;8.906;2023-04-03T23:54:13;96973.84;;;-0.62;96.47
4598;BME280;62772;48.646;8.906;2023-04-03T23:59:13;96965.53;;;-0.59;98.98
